createdAt,value
2023-01-17T00:02:03.043Z,5.70
2023-01-17T00:04:48.662Z,5.25
2023-01-17T00:07:36.887Z,5.35
2023-01-17T00:10:29.799Z,6.45
2023-01-17T00:12:58.996Z,5.80
2023-01-17T00:15:27.293Z,6.40
2023-01-17T00:17:54.377Z,6.43
2023-01-17T00:20:45.576Z,6.72
2023-01-17T00:23:42.427Z,6.60
2023-01-17T00:28:42.925Z,7.15
2023-01-17T00:31:11.526Z,6.75
2023-01-17T00:33:38.488Z,7.13
2023-01-17T00:36:06.184Z,7.22
2023-01-17T00:38:35.710Z,7.00
2023-01-17T00:41:07.583Z,6.75
2023-01-17T00:43:52.983Z,6.70
2023-01-17T00:46:38.430Z,7.30
2023-01-17T00:49:24.280Z,6.80
2023-01-17T00:52:10.021Z,6.70
2023-01-17T00:54:55.040Z,7.05
2023-01-17T00:57:39.879Z,6.50
2023-01-17T01:00:25.672Z,6.93
2023-01-17T01:03:10.772Z,6.03
2023-01-17T01:05:56.703Z,7.25
2023-01-17T01:08:46.772Z,7.25
2023-01-17T01:11:36.041Z,6.50
2023-01-17T01:14:21.279Z,6.13
2023-01-17T01:17:06.222Z,6.60
2023-01-17T01:19:51.547Z,5.75
2023-01-17T01:22:36.493Z,5.95
2023-01-17T01:25:21.678Z,5.93
2023-01-17T01:28:06.688Z,6.32
2023-01-17T01:30:51.777Z,7.10
2023-01-17T01:33:21.016Z,5.75
2023-01-17T01:35:52.515Z,5.65
2023-01-17T01:38:20.836Z,5.88
2023-01-17T01:40:49.997Z,6.05
2023-01-17T01:43:20.161Z,6.43
2023-01-17T01:45:57.393Z,6.20
2023-01-17T01:51:04.714Z,6.22
2023-01-17T01:53:35.661Z,6.00
2023-01-17T01:56:05.568Z,5.53
2023-01-17T01:58:34.795Z,5.57
2023-01-17T02:01:01.459Z,5.57
2023-01-17T02:03:32.529Z,5.03
2023-01-17T02:06:07.700Z,5.53
2023-01-17T02:08:35.342Z,5.05
2023-01-17T02:11:02.386Z,5.75
2023-01-17T02:13:29.208Z,6.20
2023-01-17T02:16:04.725Z,5.50
2023-01-17T02:18:49.459Z,5.35
2023-01-17T02:21:26.328Z,6.15
2023-01-17T02:23:55.814Z,4.93
2023-01-17T02:26:50.185Z,4.95
2023-01-17T02:29:19.620Z,5.53
2023-01-17T02:32:08.715Z,5.80
2023-01-17T02:34:51.380Z,6.15
2023-01-17T02:37:41.382Z,5.18
2023-01-17T02:40:14.358Z,6.03
2023-01-17T02:42:48.265Z,5.95
2023-01-17T02:45:17.848Z,5.50
2023-01-17T02:47:44.700Z,5.90
2023-01-17T02:50:20.741Z,6.57
2023-01-17T02:53:25.339Z,6.05
2023-01-17T02:56:10.339Z,5.05
2023-01-17T02:58:58.509Z,5.97
2023-01-17T03:01:41.548Z,5.65
2023-01-17T03:04:50.342Z,6.10
2023-01-17T03:07:23.619Z,6.35
2023-01-17T03:09:56.317Z,5.22
2023-01-17T03:12:22.968Z,5.70
2023-01-17T03:14:49.736Z,5.70
2023-01-17T03:17:16.572Z,5.72
2023-01-17T03:19:43.208Z,5.50
2023-01-17T03:22:09.853Z,5.88
2023-01-17T03:24:36.364Z,6.47
2023-01-17T03:27:02.947Z,4.80
2023-01-17T03:29:29.456Z,5.75
2023-01-17T03:31:56.002Z,5.73
2023-01-17T03:34:22.676Z,5.63
2023-01-17T03:36:49.685Z,6.00
2023-01-17T03:39:16.248Z,6.15
2023-01-17T03:41:42.786Z,6.25
2023-01-17T03:44:09.426Z,6.88
2023-01-17T03:46:36.785Z,6.22
2023-01-17T03:51:29.856Z,6.32
2023-01-17T03:53:56.409Z,7.05
2023-01-17T03:56:22.957Z,6.60
2023-01-17T03:58:49.510Z,6.90
2023-01-17T04:01:16.131Z,6.90
2023-01-17T04:03:42.705Z,6.50
2023-01-17T04:06:09.501Z,6.78
2023-01-17T04:08:36.102Z,6.75
2023-01-17T04:11:02.742Z,6.60
2023-01-17T04:13:29.317Z,6.82
2023-01-17T04:15:56.208Z,6.35
2023-01-17T04:18:24.275Z,7.03
2023-01-17T04:20:51.565Z,6.55
2023-01-17T04:23:18.472Z,5.35
2023-01-17T04:25:45.228Z,5.75
2023-01-17T04:28:12.323Z,5.60
2023-01-17T04:30:39.247Z,5.55
2023-01-17T04:33:05.932Z,4.53
2023-01-17T04:35:33.630Z,6.05
2023-01-17T04:38:00.209Z,6.10
2023-01-17T04:40:26.775Z,6.25
2023-01-17T04:42:54.365Z,6.50
2023-01-17T04:45:21.306Z,6.43
2023-01-17T04:47:47.926Z,6.63
2023-01-17T04:50:14.586Z,6.70
2023-01-17T04:52:41.128Z,6.00
2023-01-17T04:55:08.337Z,7.00
2023-01-17T04:57:34.918Z,6.63
2023-01-17T05:00:01.529Z,6.47
2023-01-17T05:02:28.131Z,6.03
2023-01-17T05:04:54.739Z,6.40
2023-01-17T05:07:21.311Z,5.72
2023-01-17T05:09:48.052Z,7.30
2023-01-17T05:12:14.781Z,6.68
2023-01-17T05:14:41.381Z,7.25
2023-01-17T05:17:07.915Z,6.30
2023-01-17T05:19:34.679Z,6.10
2023-01-17T05:22:04.155Z,6.55
2023-01-17T05:24:31.672Z,7.53
2023-01-17T05:29:30.644Z,7.28
2023-01-17T05:31:57.574Z,5.88
2023-01-17T05:34:24.475Z,7.75
2023-01-17T05:36:51.275Z,7.68
2023-01-17T05:39:18.105Z,7.68
2023-01-17T05:41:44.725Z,6.47
2023-01-17T05:44:11.589Z,7.25
2023-01-17T05:46:38.342Z,6.97
2023-01-17T05:49:05.380Z,7.22
2023-01-17T05:51:32.141Z,7.28
2023-01-17T05:53:58.717Z,7.28
2023-01-17T05:56:25.404Z,7.85
2023-01-17T05:58:52.284Z,5.32
2023-01-17T06:01:19.692Z,7.28
2023-01-17T06:03:46.389Z,7.40
2023-01-17T06:06:13.164Z,7.93
2023-01-17T06:08:39.741Z,8.13
2023-01-17T06:11:06.455Z,6.40
2023-01-17T06:13:33.045Z,7.35
2023-01-17T06:16:03.017Z,7.50
2023-01-17T06:18:31.137Z,8.23
2023-01-17T06:20:58.295Z,7.93
2023-01-17T06:23:25.013Z,6.65
2023-01-17T06:25:51.658Z,9.32
2023-01-17T06:28:20.627Z,7.50
2023-01-17T06:30:47.440Z,7.78
2023-01-17T06:33:14.514Z,7.47
2023-01-17T06:35:48.255Z,7.72
2023-01-17T06:38:14.934Z,8.07
2023-01-17T06:40:41.452Z,7.13
2023-01-17T06:43:08.037Z,9.23
2023-01-17T06:45:35.867Z,7.60
2023-01-17T06:48:04.262Z,6.90
2023-01-17T06:50:32.006Z,6.78
2023-01-17T06:53:04.296Z,7.60
2023-01-17T06:55:33.738Z,7.00
2023-01-17T06:58:02.682Z,6.93
2023-01-17T07:00:31.220Z,8.07
2023-01-17T07:02:58.007Z,10.85
2023-01-17T07:05:25.232Z,8.07
2023-01-17T07:07:51.969Z,9.60
2023-01-17T07:10:18.566Z,7.68
2023-01-17T07:12:45.142Z,6.78
2023-01-17T07:15:12.217Z,8.55
2023-01-17T07:17:39.185Z,7.93
2023-01-17T07:20:06.823Z,8.57
2023-01-17T07:22:33.355Z,10.02
2023-01-17T07:25:00.368Z,15.97
2023-01-17T07:27:30.422Z,12.75
2023-01-17T07:29:57.631Z,8.02
2023-01-17T07:32:26.611Z,8.55
2023-01-17T07:34:54.223Z,7.88
2023-01-17T07:37:21.148Z,5.47
2023-01-17T07:39:47.769Z,6.28
2023-01-17T07:42:14.349Z,6.47
2023-01-17T07:44:43.998Z,6.25
2023-01-17T07:47:11.320Z,7.35
2023-01-17T07:49:37.987Z,7.30
2023-01-17T07:52:07.759Z,6.95
2023-01-17T07:54:34.455Z,7.30
2023-01-17T07:57:01.422Z,11.82
2023-01-17T07:59:28.031Z,8.15
2023-01-17T08:01:54.676Z,6.25
2023-01-17T08:04:21.363Z,7.32
2023-01-17T08:06:51.010Z,6.38
2023-01-17T08:09:17.639Z,6.47
2023-01-17T08:11:44.180Z,7.40
2023-01-17T08:14:10.740Z,5.20
2023-01-17T08:16:38.176Z,5.10
2023-01-17T08:19:04.729Z,5.10
2023-01-17T08:21:31.304Z,4.77
2023-01-17T08:23:57.885Z,6.60
2023-01-17T08:26:24.412Z,5.47
2023-01-17T08:29:00.898Z,4.95
2023-01-17T08:31:33.445Z,5.70
2023-01-17T08:34:00.086Z,4.10
2023-01-17T08:36:28.585Z,4.65
2023-01-17T08:38:55.540Z,4.60
2023-01-17T08:41:23.641Z,4.57
2023-01-17T08:43:51.749Z,4.80
2023-01-17T08:46:19.067Z,4.35
2023-01-17T08:48:46.100Z,4.30
2023-01-17T08:51:13.047Z,3.80
2023-01-17T08:53:40.641Z,3.65
2023-01-17T08:56:07.690Z,4.28
2023-01-17T08:58:35.871Z,4.22
2023-01-17T09:01:04.322Z,4.55
2023-01-17T09:03:32.198Z,3.92
2023-01-17T09:06:07.643Z,4.22
2023-01-17T09:08:34.854Z,4.03
2023-01-17T09:11:09.544Z,4.40
2023-01-17T09:13:36.666Z,4.22
2023-01-17T09:16:04.494Z,4.38
2023-01-17T09:18:32.927Z,3.97
2023-01-17T09:20:59.924Z,6.30
2023-01-17T09:23:29.750Z,4.40
2023-01-17T09:25:58.340Z,3.92
2023-01-17T09:28:26.664Z,4.00
2023-01-17T09:30:54.097Z,4.35
2023-01-17T09:33:23.281Z,3.97
2023-01-17T09:35:50.038Z,4.07
2023-01-17T09:38:16.800Z,4.45
2023-01-17T09:40:46.605Z,4.13
2023-01-17T09:43:23.643Z,4.88
2023-01-17T09:45:50.486Z,7.63
2023-01-17T09:48:28.260Z,10.07
2023-01-17T09:51:04.668Z,8.52
2023-01-17T09:53:37.542Z,8.18
2023-01-17T09:56:10.478Z,8.60
2023-01-17T09:58:48.054Z,12.85
2023-01-17T10:01:50.254Z,5.55
2023-01-17T10:04:25.871Z,6.45
2023-01-17T10:06:58.455Z,4.55
2023-01-17T10:09:30.216Z,5.40
2023-01-17T10:12:06.436Z,6.28
2023-01-17T10:15:18.211Z,7.70
2023-01-17T10:17:59.143Z,6.38
2023-01-17T10:20:40.761Z,5.75
2023-01-17T10:23:22.179Z,6.80
2023-01-17T10:25:52.515Z,11.95
2023-01-17T10:28:51.090Z,6.30
2023-01-17T10:31:31.081Z,5.35
2023-01-17T10:34:06.874Z,6.25
2023-01-17T10:36:41.496Z,7.20
2023-01-17T10:39:20.322Z,4.68
2023-01-17T10:41:58.062Z,4.38
2023-01-17T10:44:33.309Z,4.97
2023-01-17T10:47:08.758Z,5.28
2023-01-17T10:49:39.844Z,3.75
2023-01-17T10:52:24.537Z,5.68
2023-01-17T10:55:05.272Z,4.50
2023-01-17T10:57:46.009Z,5.25
2023-01-17T11:00:41.825Z,4.20
2023-01-17T11:03:11.431Z,4.07
2023-01-17T11:05:40.716Z,4.47
2023-01-17T11:08:13.549Z,3.50
2023-01-17T11:10:40.241Z,3.70
2023-01-17T11:13:29.864Z,3.80
2023-01-17T11:16:03.075Z,2.70
2023-01-17T11:18:35.776Z,3.00
2023-01-17T11:21:28.818Z,2.83
2023-01-17T11:23:57.213Z,2.85
2023-01-17T11:26:28.569Z,3.58
2023-01-17T11:29:38.923Z,2.90
2023-01-17T11:32:23.683Z,2.88
2023-01-17T11:35:35.171Z,5.43
2023-01-17T11:38:27.768Z,3.33
2023-01-17T11:41:14.293Z,3.13
2023-01-17T11:43:55.720Z,3.20
2023-01-17T11:46:23.991Z,3.97
2023-01-17T11:48:59.640Z,2.25
2023-01-17T11:51:41.413Z,2.92
2023-01-17T11:54:38.918Z,3.53
2023-01-17T11:57:07.419Z,2.85
2023-01-17T11:59:38.744Z,3.50
2023-01-17T12:02:42.906Z,4.00
2023-01-17T12:05:18.656Z,2.05
2023-01-17T12:08:03.673Z,2.13
2023-01-17T12:10:44.239Z,2.42
2023-01-17T12:13:40.245Z,2.08
2023-01-17T12:16:31.287Z,2.80
2023-01-17T12:19:26.869Z,2.72
2023-01-17T12:22:33.915Z,2.90
2023-01-17T12:25:14.917Z,2.90
2023-01-17T12:27:42.712Z,2.67
2023-01-17T12:30:57.564Z,2.78
2023-01-17T12:33:54.991Z,2.50
2023-01-17T12:36:40.062Z,3.03
2023-01-17T12:39:11.766Z,2.55
2023-01-17T12:41:51.880Z,2.70
2023-01-17T12:44:22.213Z,3.40
2023-01-17T12:47:00.708Z,2.28
2023-01-17T12:49:41.697Z,2.60
2023-01-17T12:52:20.101Z,2.72
2023-01-17T12:54:53.300Z,2.90
2023-01-17T12:57:27.404Z,2.30
2023-01-17T13:00:00.037Z,2.95
2023-01-17T13:02:36.463Z,2.70
2023-01-17T13:05:03.197Z,2.70
2023-01-17T13:08:05.028Z,2.30
2023-01-17T13:10:51.169Z,2.85
2023-01-17T13:13:26.262Z,2.10
2023-01-17T13:15:58.328Z,2.17
2023-01-17T13:18:29.560Z,2.70
2023-01-17T13:21:06.160Z,1.90
2023-01-17T13:24:02.229Z,2.20
2023-01-17T13:26:28.796Z,2.33
2023-01-17T13:29:00.602Z,2.67
2023-01-17T13:32:05.911Z,2.95
2023-01-17T13:35:03.510Z,2.53
2023-01-17T13:37:57.862Z,3.53
2023-01-17T13:40:34.294Z,3.00
2023-01-17T13:43:02.444Z,2.97
2023-01-17T13:45:32.787Z,3.22
2023-01-17T13:48:18.251Z,2.75
2023-01-17T13:50:49.087Z,3.10
2023-01-17T13:53:27.658Z,2.70
2023-01-17T13:56:25.394Z,2.35
2023-01-17T13:58:54.516Z,2.38
2023-01-17T14:01:23.899Z,2.20
2023-01-17T14:03:50.637Z,2.63
2023-01-17T14:06:35.572Z,2.65
2023-01-17T14:09:08.122Z,2.38
2023-01-17T14:11:36.928Z,2.35
2023-01-17T14:14:40.383Z,2.50
2023-01-17T14:17:37.296Z,2.40
2023-01-17T14:20:09.835Z,2.42
2023-01-17T14:22:41.162Z,2.70
2023-01-17T14:25:17.667Z,2.30
2023-01-17T14:27:47.251Z,2.60
2023-01-17T14:30:16.926Z,2.58
2023-01-17T14:32:58.659Z,2.97
2023-01-17T14:35:35.882Z,3.42
2023-01-17T14:40:32.924Z,4.05
2023-01-17T14:43:07.422Z,5.10
2023-01-17T14:45:35.609Z,3.58
2023-01-17T14:48:14.505Z,2.95
2023-01-17T14:50:42.851Z,2.70
2023-01-17T14:53:16.251Z,3.20
2023-01-17T14:55:50.179Z,2.67
2023-01-17T14:58:21.727Z,2.65
2023-01-17T15:00:51.127Z,3.53
2023-01-17T15:03:17.937Z,4.85
2023-01-17T15:05:47.563Z,3.05
2023-01-17T15:08:17.923Z,2.67
2023-01-17T15:11:03.062Z,2.10
2023-01-17T15:13:44.352Z,2.53
2023-01-17T15:16:18.969Z,2.90
2023-01-17T15:18:46.306Z,2.30
2023-01-17T15:21:17.250Z,2.40
2023-01-17T15:23:48.153Z,2.28
2023-01-17T15:26:18.136Z,2.30
2023-01-17T15:28:45.692Z,2.53
2023-01-17T15:31:16.742Z,2.80
2023-01-17T15:33:46.867Z,3.05
2023-01-17T15:36:38.606Z,2.53
2023-01-17T15:39:17.650Z,2.38
2023-01-17T15:41:44.273Z,3.03
2023-01-17T15:44:47.487Z,2.63
2023-01-17T15:47:44.194Z,2.55
2023-01-17T15:50:20.282Z,7.07
2023-01-17T15:52:54.454Z,4.82
2023-01-17T15:55:29.660Z,2.95
2023-01-17T15:57:56.245Z,5.00
2023-01-17T16:00:32.520Z,3.85
2023-01-17T16:02:59.768Z,3.67
2023-01-17T16:05:31.010Z,5.15
2023-01-17T16:08:23.165Z,2.47
2023-01-17T16:10:54.843Z,4.25
2023-01-17T16:13:21.921Z,3.20
2023-01-17T16:15:48.711Z,2.97
2023-01-17T16:18:19.313Z,3.15
2023-01-17T16:20:45.834Z,2.70
2023-01-17T16:23:12.763Z,4.57
2023-01-17T16:25:39.381Z,3.05
2023-01-17T16:28:06.503Z,3.60
2023-01-17T16:30:33.742Z,3.38
2023-01-17T16:33:00.550Z,3.30
2023-01-17T16:35:30.157Z,2.35
2023-01-17T16:38:02.569Z,6.18
2023-01-17T16:40:31.930Z,3.67
2023-01-17T16:43:00.385Z,2.10
2023-01-17T16:45:27.517Z,2.58
2023-01-17T16:47:54.641Z,2.60
2023-01-17T16:50:24.126Z,2.35
2023-01-17T16:52:52.487Z,3.03
2023-01-17T16:55:22.443Z,2.70
2023-01-17T16:57:50.685Z,3.00
2023-01-17T17:00:18.497Z,2.30
2023-01-17T17:02:45.088Z,2.58
2023-01-17T17:05:11.765Z,3.55
2023-01-17T17:07:45.627Z,2.97
2023-01-17T17:10:15.400Z,1.92
2023-01-17T17:12:42.942Z,2.80
2023-01-17T17:15:10.802Z,2.50
2023-01-17T17:17:42.189Z,3.88
2023-01-17T17:20:12.584Z,4.18
2023-01-17T17:22:40.975Z,3.55
2023-01-17T17:25:07.817Z,3.45
2023-01-17T17:27:34.357Z,2.50
2023-01-17T17:30:00.982Z,2.35
2023-01-17T17:32:28.131Z,4.03
2023-01-17T17:34:54.630Z,2.90
2023-01-17T17:37:22.526Z,2.23
2023-01-17T17:39:49.479Z,2.47
2023-01-17T17:42:16.099Z,3.08
2023-01-17T17:44:42.630Z,4.80
2023-01-17T17:47:11.687Z,4.43
2023-01-17T17:49:38.950Z,10.90
2023-01-17T17:52:09.171Z,5.38
2023-01-17T17:54:36.022Z,3.30
2023-01-17T17:57:02.812Z,2.42
2023-01-17T17:59:30.008Z,3.60
2023-01-17T18:01:57.067Z,2.38
2023-01-17T18:04:23.786Z,2.65
2023-01-17T18:06:50.396Z,2.22
2023-01-17T18:09:17.379Z,2.22
2023-01-17T18:11:44.475Z,6.90
2023-01-17T18:14:14.160Z,5.97
2023-01-17T18:16:43.763Z,4.00
2023-01-17T18:19:24.914Z,2.22
2023-01-17T18:21:52.706Z,5.68
2023-01-17T18:24:21.849Z,3.20
2023-01-17T18:26:53.895Z,2.20
2023-01-17T18:29:22.033Z,1.90
2023-01-17T18:31:50.427Z,4.00
2023-01-17T18:34:21.307Z,3.08
2023-01-17T18:36:47.823Z,2.45
2023-01-17T18:39:26.013Z,2.97
2023-01-17T18:41:53.969Z,2.70
2023-01-17T18:44:22.216Z,2.90
2023-01-17T18:46:50.342Z,2.83
2023-01-17T18:49:19.297Z,2.60
2023-01-17T18:51:50.450Z,2.75
2023-01-17T18:54:18.220Z,2.70
2023-01-17T18:56:45.071Z,2.30
2023-01-17T18:59:13.000Z,4.30
2023-01-17T19:01:42.256Z,2.72
2023-01-17T19:04:09.575Z,4.72
2023-01-17T19:06:39.740Z,3.90
2023-01-17T19:09:07.799Z,4.80
2023-01-17T19:11:35.277Z,3.38
2023-01-17T19:14:02.833Z,5.72
2023-01-17T19:16:31.743Z,7.85
2023-01-17T19:19:02.338Z,4.70
2023-01-17T19:21:29.791Z,2.40
2023-01-17T19:26:25.538Z,2.35
2023-01-17T19:28:52.207Z,2.47
2023-01-17T19:31:24.145Z,3.15
2023-01-17T19:33:53.557Z,2.03
2023-01-17T19:36:23.632Z,2.17
2023-01-17T19:39:03.474Z,2.08
2023-01-17T19:41:32.009Z,6.80
2023-01-17T20:08:42.549Z,2.90
2023-01-17T20:11:20.845Z,2.42
2023-01-17T20:13:49.245Z,2.47
2023-01-17T20:16:17.026Z,2.05
2023-01-17T20:18:44.575Z,2.97
2023-01-17T20:21:15.460Z,2.72
2023-01-17T20:23:43.234Z,2.85
2023-01-17T20:26:15.340Z,2.90
2023-01-17T20:28:43.592Z,2.58
2023-01-17T20:31:15.545Z,2.58
2023-01-17T20:33:44.036Z,2.25
2023-01-17T20:36:14.934Z,2.40
2023-01-17T20:38:45.687Z,2.50
2023-01-17T20:41:25.762Z,2.92
2023-01-17T20:43:55.182Z,2.20
2023-01-17T20:46:24.301Z,2.60
2023-01-17T20:48:53.284Z,2.78
2023-01-17T20:51:21.677Z,2.25
2023-01-17T20:53:52.555Z,2.33
2023-01-17T20:56:19.863Z,2.33
2023-01-17T20:58:46.607Z,2.67
2023-01-17T21:01:19.823Z,2.95
2023-01-17T21:03:49.289Z,2.40
2023-01-17T21:06:16.127Z,2.28
2023-01-17T21:08:44.659Z,2.47
2023-01-17T21:11:13.561Z,3.08
2023-01-17T21:13:40.406Z,6.00
2023-01-17T21:16:09.335Z,3.15
2023-01-17T21:18:36.496Z,3.13
2023-01-17T21:21:08.621Z,5.50
2023-01-17T21:23:36.616Z,3.25
2023-01-17T21:26:04.373Z,5.85
2023-01-17T21:28:34.191Z,2.72
2023-01-17T21:31:01.582Z,3.40
2023-01-17T21:36:06.736Z,2.85
2023-01-17T21:38:33.263Z,3.38
2023-01-17T21:40:59.799Z,2.87
2023-01-17T21:43:26.473Z,6.03
2023-01-17T21:45:53.523Z,5.55
2023-01-17T21:48:20.281Z,3.45
2023-01-17T21:50:47.391Z,4.55
2023-01-17T21:53:14.168Z,3.03
2023-01-17T21:55:58.920Z,2.72
2023-01-17T21:58:43.690Z,3.00
2023-01-17T22:01:17.826Z,3.03
2023-01-17T22:03:56.125Z,3.47
2023-01-17T22:06:25.133Z,2.85
2023-01-17T22:08:51.678Z,2.78
2023-01-17T22:11:20.844Z,2.93
2023-01-17T22:13:47.909Z,2.67
2023-01-17T22:16:18.069Z,2.92
2023-01-17T22:18:45.554Z,2.83
2023-01-17T22:21:13.645Z,3.20
2023-01-17T22:23:54.730Z,2.58
2023-01-17T22:26:23.425Z,2.35
2023-01-17T22:28:50.032Z,2.60
2023-01-17T22:31:22.452Z,2.50
2023-01-17T22:33:57.954Z,2.33
2023-01-17T22:36:24.988Z,2.33
2023-01-17T22:38:52.232Z,2.78
2023-01-17T22:41:24.436Z,2.63
2023-01-17T22:43:57.053Z,2.60
2023-01-17T22:46:27.383Z,2.92
2023-01-17T22:48:55.689Z,2.53
2023-01-17T22:51:26.142Z,2.90
2023-01-17T22:53:55.827Z,2.90
2023-01-17T22:56:26.513Z,2.95
2023-01-17T22:58:53.371Z,2.90
2023-01-17T23:01:23.467Z,2.80
2023-01-17T23:03:57.261Z,3.33
2023-01-17T23:06:25.652Z,2.45
2023-01-17T23:08:55.575Z,2.55
2023-01-17T23:11:49.777Z,2.92
2023-01-17T23:14:31.106Z,2.50
2023-01-17T23:17:21.471Z,2.83
2023-01-17T23:19:51.054Z,2.38
2023-01-17T23:22:21.331Z,2.80
2023-01-17T23:24:58.212Z,2.45
2023-01-17T23:27:47.529Z,3.13
2023-01-17T23:30:16.479Z,2.75
2023-01-17T23:32:52.398Z,2.47
2023-01-17T23:35:21.616Z,2.85
2023-01-17T23:38:06.674Z,2.80
2023-01-17T23:40:35.574Z,2.63
2023-01-17T23:43:21.239Z,2.78
2023-01-17T23:45:48.063Z,2.38
2023-01-17T23:48:14.991Z,2.63
2023-01-17T23:50:44.358Z,2.58
2023-01-17T23:53:15.437Z,1.83
2023-01-17T23:55:45.715Z,2.38
2023-01-17T23:58:12.663Z,2.47
